Airfield :
LOGIN :

Register | Disclaimer

   EN    FR    IT 

 










Legend :    VFR   Marginal VFR   IFR   Intensive IFR   Very Intensive IFR
Visi :
Ceiling :
>= 8 km
>= 3000ft
5 to 8 km
1000 to 3000 ft
1500m to 5 km
500 to 1000 ft
800 to 1500m
200 to 500 ft
< 800m
< 200 ft
Symbols :   Thunderstorms  Fog  Heavy snow  Heavy precipitations  Wind > 20 kt
SIGMETs :     Misc.  Thunderstorms  Icing  Turbulence  Mountain Waves  Volcanic Ashes







- Airport Elevation : 526 ft
- IATA code : LTN
- Download approach charts


EGGW - London Luton

CURRENT METAR :
  • 240720Z AUTO 21010KT 9999 BKN005 OVC012 14/14 Q1016

EXPIRED METARs :
  • 240650Z AUTO 21009KT 9999 BKN006 14/14 Q1016
  • 240620Z AUTO 21009KT 9999 SCT005 BKN010 14/13 Q1017
  • 240550Z AUTO 22008KT 9999 BKN005 BKN017 14/13 Q1016
  • 240520Z AUTO 23010KT 9999 BKN004 BKN011 14/14 Q1016
  • 240450Z 21006KT 180V240 2900 BR OVC003 14/13 Q1016

TAF AMD TAF EGGW
Valid from the 24 at 06:00 until the 25 at 06:00 UTC


240603Z 2406/2506 22007KT 9999 BKN005
TEMPO 2406/2410 4000 -RADZ BR BKN002
PROB30
TEMPO 2406/2408 1200 RADZ OVC001
BECMG 2410/2413 22017KT BKN018
TEMPO 2410/2418 23020G30KT
TEMPO 2413/2506 BKN010
PROB30
TEMPO 2504/2506 8000 -RA BKN005
ATIS : +44 1582 395 204
No reported NOTAMs for that airfield.



MET'MAP, your aeronautical weather chart ! - Copyright ORBIFLY December 2007 - Disclaimer

ORBIFLY MET'MAP TEAM :

Programming & Development : Alexandra Zaïnal
Concept & Development : Baudouin d'Aumeries
Co-Development & Prog : Marc-Olivier Méhu
Technical & hardware support : Manuel Goepfert

Contact : metmap@orbifly.com




SOURCES & CREDITS :

   NOAA